createdAt,value
2022-09-07T03:51:51.319Z,83.13
2022-09-07T03:54:54.230Z,83.13
2022-09-07T03:57:57.165Z,84.36
2022-09-07T04:01:04.379Z,83.94
2022-09-07T04:04:07.088Z,83.50
2022-09-07T04:07:10.183Z,83.20
2022-09-07T04:10:12.745Z,82.76
2022-09-07T04:13:14.993Z,82.26
2022-09-07T04:16:20.808Z,81.56
2022-09-07T04:19:23.599Z,81.35
2022-09-07T04:22:26.463Z,81.31
2022-09-07T04:25:28.724Z,80.86
2022-09-07T04:28:31.634Z,80.52
2022-09-07T04:31:35.449Z,80.58
2022-09-07T04:34:38.179Z,80.33
2022-09-07T04:37:40.859Z,80.25
2022-09-07T04:40:44.069Z,79.97
2022-09-07T04:43:47.207Z,79.87
2022-09-07T04:46:49.866Z,79.66
2022-09-07T04:49:53.143Z,80.05
2022-09-07T04:52:55.783Z,79.99
2022-09-07T04:55:58.736Z,79.72
2022-09-07T04:59:01.871Z,79.84
2022-09-07T05:02:04.320Z,80.21
2022-09-07T05:05:07.467Z,79.21
2022-09-07T05:08:09.862Z,79.06
2022-09-07T05:11:14.072Z,78.81
2022-09-07T05:14:16.414Z,78.34
2022-09-07T05:17:19.711Z,78.01
2022-09-07T05:20:22.244Z,77.60
2022-09-07T05:23:25.393Z,77.63
2022-09-07T05:26:30.632Z,76.42
2022-09-07T05:32:56.428Z,75.80
2022-09-07T05:35:59.402Z,75.08
2022-09-07T05:39:01.678Z,74.23
2022-09-07T05:42:04.706Z,73.67
2022-09-07T05:45:07.549Z,73.64
2022-09-07T05:48:10.383Z,73.25
2022-09-07T05:51:14.590Z,72.38
2022-09-07T05:54:17.280Z,70.81
2022-09-07T05:57:19.784Z,70.97
2022-09-07T06:00:22.611Z,70.58
2022-09-07T06:03:25.378Z,70.06
2022-09-07T06:06:27.791Z,68.84
2022-09-07T06:09:30.859Z,69.14
2022-09-07T06:12:33.844Z,69.65
2022-09-07T06:15:36.524Z,68.00
2022-09-07T06:18:41.346Z,68.32
2022-09-07T06:21:44.011Z,68.26
2022-09-07T06:24:46.529Z,68.18
2022-09-07T06:27:49.648Z,67.45
2022-09-07T06:30:52.055Z,67.35
2022-09-07T06:33:57.302Z,66.64
2022-09-07T06:36:59.879Z,66.96
2022-09-07T06:40:03.766Z,67.38
2022-09-07T06:43:06.273Z,66.68
2022-09-07T06:49:31.301Z,65.11
2022-09-07T06:55:58.459Z,62.44
2022-09-07T06:59:01.214Z,62.14
2022-09-07T07:02:04.834Z,62.37
2022-09-07T07:05:07.790Z,62.20
2022-09-07T07:08:10.245Z,61.32
2022-09-07T07:11:13.713Z,61.90
2022-09-07T07:14:16.422Z,63.08
2022-09-07T07:17:18.974Z,62.73
2022-09-07T07:20:21.817Z,62.66
2022-09-07T07:23:24.725Z,60.72
2022-09-07T07:26:27.160Z,60.30
2022-09-07T07:29:29.908Z,59.49
2022-09-07T07:32:32.231Z,59.01
2022-09-07T07:35:35.308Z,58.91
2022-09-07T07:42:03.232Z,58.00
2022-09-07T07:48:34.325Z,56.41
2022-09-07T07:54:59.787Z,55.97
2022-09-07T07:58:02.093Z,55.62
2022-09-07T08:01:12.820Z,55.57
2022-09-07T08:04:15.479Z,55.43
2022-09-07T08:07:17.845Z,54.32
2022-09-07T08:10:20.551Z,54.01
2022-09-07T08:13:22.885Z,53.54
2022-09-07T08:16:25.929Z,53.84
2022-09-07T08:19:28.545Z,53.72
2022-09-07T08:22:34.765Z,54.87
2022-09-07T08:25:37.538Z,53.07
2022-09-07T08:28:44.008Z,54.75
2022-09-07T08:31:46.509Z,52.94
2022-09-07T08:34:49.380Z,52.18
2022-09-07T08:37:51.760Z,51.88
2022-09-07T08:40:54.597Z,52.64
2022-09-07T08:44:03.509Z,51.83
2022-09-07T08:47:33.673Z,52.01
2022-09-07T08:50:45.938Z,51.21
2022-09-07T08:53:50.208Z,50.37
2022-09-07T09:00:19.071Z,49.60
2022-09-07T09:04:14.674Z,48.72
2022-09-07T09:07:10.525Z,46.59
2022-09-07T09:10:28.782Z,45.40
2022-09-07T09:13:52.074Z,44.40
2022-09-07T09:16:59.763Z,44.23
2022-09-07T09:20:05.611Z,44.91
2022-09-07T09:23:15.866Z,45.70
2022-09-07T09:26:24.181Z,45.51
2022-09-07T09:29:26.496Z,45.70
2022-09-07T09:33:13.983Z,45.54
2022-09-07T09:36:34.240Z,47.30
2022-09-07T09:39:38.472Z,45.85
2022-09-07T09:42:40.900Z,45.62
2022-09-07T09:49:23.977Z,45.09
2022-09-07T09:52:33.785Z,44.98
2022-09-07T09:55:40.951Z,47.05
2022-09-07T10:05:51.703Z,44.54
2022-09-07T10:08:59.268Z,45.10
2022-09-07T10:12:07.006Z,44.08
2022-09-07T10:15:28.599Z,43.77
2022-09-07T10:18:38.403Z,42.64
2022-09-07T10:21:41.100Z,42.68
2022-09-07T10:24:43.818Z,41.74
2022-09-07T10:27:46.780Z,41.61
2022-09-07T10:31:01.542Z,40.72
2022-09-07T10:34:26.039Z,40.79
2022-09-07T10:38:08.439Z,41.48
2022-09-07T10:41:11.509Z,41.76
2022-09-07T10:44:49.440Z,42.83
2022-09-07T10:48:02.297Z,41.84
2022-09-07T10:51:14.451Z,42.84
2022-09-07T10:54:31.890Z,42.50
2022-09-07T10:57:56.718Z,41.67
2022-09-07T11:01:21.673Z,41.15
2022-09-07T11:04:34.075Z,40.84
2022-09-07T11:07:51.726Z,41.04
2022-09-07T11:15:09.584Z,41.42
2022-09-07T11:18:22.602Z,40.02
2022-09-07T11:28:33.112Z,40.41
2022-09-07T11:31:45.103Z,40.04
2022-09-07T11:34:57.457Z,40.45
2022-09-07T11:38:12.737Z,39.97
2022-09-07T11:41:15.077Z,39.18
2022-09-07T11:44:24.775Z,39.59
2022-09-07T11:47:27.037Z,39.07
2022-09-07T11:50:35.788Z,38.95
2022-09-07T11:53:46.380Z,39.39
2022-09-07T11:56:57.479Z,39.00
2022-09-07T12:00:13.842Z,38.23
2022-09-07T12:03:38.428Z,38.56
2022-09-07T12:07:18.150Z,38.76
2022-09-07T12:10:37.683Z,38.71
2022-09-07T12:14:12.489Z,39.80
2022-09-07T12:17:31.023Z,39.65
2022-09-07T12:20:43.181Z,40.59
2022-09-07T12:23:46.461Z,40.49
2022-09-07T12:26:50.350Z,40.61
2022-09-07T12:29:59.547Z,40.70
2022-09-07T12:33:18.422Z,41.36
2022-09-07T12:36:27.100Z,41.26
2022-09-07T12:39:33.262Z,40.93
2022-09-07T12:42:37.521Z,41.21
2022-09-07T12:45:40.014Z,40.48
2022-09-07T12:49:04.646Z,40.98
2022-09-07T12:52:34.982Z,40.96
2022-09-07T12:59:20.439Z,41.44
2022-09-07T13:02:41.883Z,41.29
2022-09-07T13:06:14.809Z,41.55
2022-09-07T13:09:23.702Z,41.76
2022-09-07T13:12:53.702Z,41.10
2022-09-07T13:16:05.815Z,40.83
2022-09-07T13:19:14.959Z,40.63
2022-09-07T13:22:46.717Z,41.76
2022-09-07T13:25:55.824Z,41.47
2022-09-07T13:29:03.063Z,40.50
2022-09-07T13:33:07.953Z,40.72
2022-09-07T13:35:48.144Z,41.16
2022-09-07T13:38:51.005Z,40.71
2022-09-07T13:41:58.005Z,41.14
2022-09-07T13:45:02.475Z,39.69
2022-09-07T13:48:21.701Z,41.77
2022-09-07T13:51:43.126Z,40.75
2022-09-07T13:55:11.161Z,40.98
2022-09-07T13:58:19.835Z,43.26
2022-09-07T14:01:25.992Z,41.66
2022-09-07T14:04:41.663Z,41.47
2022-09-07T14:07:45.965Z,40.96
2022-09-07T14:10:49.003Z,40.76
2022-09-07T14:14:18.120Z,40.81
2022-09-07T14:17:20.881Z,41.00
2022-09-07T14:20:24.687Z,41.25
2022-09-07T14:23:30.555Z,41.85
2022-09-07T14:26:34.215Z,41.63
2022-09-07T14:29:37.030Z,41.13
2022-09-07T14:32:39.550Z,40.43
2022-09-07T14:35:42.161Z,40.08
2022-09-07T14:42:11.795Z,39.50
2022-09-07T14:45:23.339Z,39.62
2022-09-07T14:48:32.223Z,40.03
2022-09-07T14:51:36.770Z,40.18
2022-09-07T14:54:39.863Z,40.41
2022-09-07T14:57:42.293Z,40.66
2022-09-07T15:01:37.007Z,41.19
2022-09-07T15:04:19.367Z,41.20
2022-09-07T15:07:49.738Z,40.75
2022-09-07T15:14:25.328Z,40.34
2022-09-07T15:17:47.831Z,40.80
2022-09-07T15:20:50.552Z,41.47
2022-09-07T15:23:55.462Z,41.71
2022-09-07T15:27:05.219Z,42.03
2022-09-07T15:30:11.247Z,41.72
2022-09-07T15:33:13.817Z,41.62
2022-09-07T15:36:17.109Z,41.52
2022-09-07T15:39:25.689Z,41.63
2022-09-07T15:45:51.365Z,41.69
2022-09-07T15:48:55.274Z,42.04
2022-09-07T15:52:05.690Z,42.61
2022-09-07T15:55:09.244Z,43.10
